sensor_id;sensor_type;location;lat;lon;timestamp;pressure;altitude;pressure_sealevel;temperature;humidity
58243;BME280;50118;53.232;8.252;2022-11-20T00:01:13;101186.59;;;-0.81;100.00
58243;BME280;50118;53.232;8.252;2022-11-20T00:03:40;101183.97;;;-0.81;100.00
58243;BME280;50118;53.232;8.252;2022-11-20T00:06:14;101183.13;;;-0.81;100.00
58243;BME280;50118;53.232;8.252;2022-11-20T00:08:39;101193.53;;;-0.80;100.00
58243;BME280;50118;53.232;8.252;2022-11-20T00:11:11;101189.72;;;-0.71;100.00
58243;BME280;50118;53.232;8.252;2022-11-20T00:13:36;101194.88;;;-0.69;100.00
58243;BME280;50118;53.232;8.252;2022-11-20T00:16:04;101189.09;;;-0.78;100.00
58243;BME280;50118;53.232;8.252;2022-11-20T00:18:30;101192.75;;;-0.82;100.00
58243;BME280;50118;53.232;8.252;2022-11-20T00:21:09;101199.78;;;-0.84;100.00
58243;BME280;50118;53.232;8.252;2022-11-20T00:23:35;101198.16;;;-0.86;100.00
58243;BME280;50118;53.232;8.252;2022-11-20T00:26:05;101196.41;;;-0.86;100.00
58243;BME280;50118;53.232;8.252;2022-11-20T00:28:31;101204.97;;;-0.82;100.00
58243;BME280;50118;53.232;8.252;2022-11-20T00:31:05;101196.28;;;-0.83;100.00
58243;BME280;50118;53.232;8.252;2022-11-20T00:33:31;101196.28;;;-0.83;100.00
58243;BME280;50118;53.232;8.252;2022-11-20T00:36:01;101201.50;;;-0.83;100.00
58243;BME280;50118;53.232;8.252;2022-11-20T00:38:27;101195.38;;;-0.82;100.00
58243;BME280;50118;53.232;8.252;2022-11-20T00:41:03;101196.81;;;-0.74;100.00
58243;BME280;50118;53.232;8.252;2022-11-20T00:43:29;101199.44;;;-0.74;100.00
58243;BME280;50118;53.232;8.252;2022-11-20T00:46:03;101194.31;;;-0.78;100.00
58243;BME280;50118;53.232;8.252;2022-11-20T00:48:30;101189.72;;;-0.71;100.00
58243;BME280;50118;53.232;8.252;2022-11-20T00:50:56;101194.09;;;-0.71;100.00
58243;BME280;50118;53.232;8.252;2022-11-20T00:53:21;101188.88;;;-0.71;100.00
58243;BME280;50118;53.232;8.252;2022-11-20T00:55:54;101199.44;;;-0.74;100.00
58243;BME280;50118;53.232;8.252;2022-11-20T00:58:21;101185.81;;;-0.83;100.00
58243;BME280;50118;53.232;8.252;2022-11-20T01:00:46;101192.50;;;-0.76;100.00
58243;BME280;50118;53.232;8.252;2022-11-20T01:03:12;101190.19;;;-0.83;100.00
58243;BME280;50118;53.232;8.252;2022-11-20T01:05:37;101188.31;;;-0.80;100.00
58243;BME280;50118;53.232;8.252;2022-11-20T01:08:03;101194.31;;;-0.78;100.00
58243;BME280;50118;53.232;8.252;2022-11-20T01:10:28;101196.16;;;-0.80;100.00
58243;BME280;50118;53.232;8.252;2022-11-20T01:12:54;101194.22;;;-0.74;100.00
58243;BME280;50118;53.232;8.252;2022-11-20T01:15:39;101189.66;;;-0.69;100.00
58243;BME280;50118;53.232;8.252;2022-11-20T01:18:05;101195.53;;;-0.64;100.00
58243;BME280;50118;53.232;8.252;2022-11-20T01:20:34;101185.19;;;-0.67;100.00
58243;BME280;50118;53.232;8.252;2022-11-20T01:23:01;101183.63;;;-0.71;100.00
58243;BME280;50118;53.232;8.252;2022-11-20T01:25:26;101182.47;;;-0.64;100.00
58243;BME280;50118;53.232;8.252;2022-11-20T01:27:52;101180.09;;;-0.70;100.00
58243;BME280;50118;53.232;8.252;2022-11-20T01:30:17;101178.56;;;-0.54;100.00
58243;BME280;50118;53.232;8.252;2022-11-20T01:32:42;101184.97;;;-0.61;100.00
58243;BME280;50118;53.232;8.252;2022-11-20T01:35:08;101178.13;;;-0.65;100.00
58243;BME280;50118;53.232;8.252;2022-11-20T01:37:34;101173.81;;;-0.66;100.00
58243;BME280;50118;53.232;8.252;2022-11-20T01:40:00;101167.53;;;-0.62;100.00
58243;BME280;50118;53.232;8.252;2022-11-20T01:42:25;101173.00;;;-0.68;100.00
58243;BME280;50118;53.232;8.252;2022-11-20T01:48:13;101155.50;;;-0.66;100.00
58243;BME280;50118;53.232;8.252;2022-11-20T01:50:39;101145.88;;;-0.66;100.00
58243;BME280;50118;53.232;8.252;2022-11-20T01:53:08;101136.03;;;-0.59;100.00
58243;BME280;50118;53.232;8.252;2022-11-20T01:55:42;101163.03;;;-0.59;100.00
58243;BME280;50118;53.232;8.252;2022-11-20T01:58:09;101153.69;;;-0.64;100.00
58243;BME280;50118;53.232;8.252;2022-11-20T02:00:35;101138.53;;;-0.56;100.00
58243;BME280;50118;53.232;8.252;2022-11-20T02:03:04;101139.53;;;-0.60;100.00
58243;BME280;50118;53.232;8.252;2022-11-20T02:05:38;101144.06;;;-0.64;100.00
58243;BME280;50118;53.232;8.252;2022-11-20T02:08:06;101140.59;;;-0.64;100.00
58243;BME280;50118;53.232;8.252;2022-11-20T02:10:32;101136.69;;;-0.54;100.00
58243;BME280;50118;53.232;8.252;2022-11-20T02:12:58;101134.97;;;-0.55;100.00
58243;BME280;50118;53.232;8.252;2022-11-20T02:15:42;101127.72;;;-0.48;100.00
58243;BME280;50118;53.232;8.252;2022-11-20T02:18:09;101126.47;;;-0.60;100.00
58243;BME280;50118;53.232;8.252;2022-11-20T02:20:35;101122.94;;;-0.59;100.00
58243;BME280;50118;53.232;8.252;2022-11-20T02:23:10;101124.31;;;-0.50;100.00
58243;BME280;50118;53.232;8.252;2022-11-20T02:25:37;101110.50;;;-0.54;100.00
58243;BME280;50118;53.232;8.252;2022-11-20T02:28:05;101127.25;;;-0.58;100.00
58243;BME280;50118;53.232;8.252;2022-11-20T02:30:30;101122.53;;;-0.50;100.00
58243;BME280;50118;53.232;8.252;2022-11-20T02:32:57;101114.75;;;-0.51;100.00
58243;BME280;50118;53.232;8.252;2022-11-20T02:37:51;101120.91;;;-0.52;100.00
58243;BME280;50118;53.232;8.252;2022-11-20T02:40:18;101118.38;;;-0.54;100.00
58243;BME280;50118;53.232;8.252;2022-11-20T02:42:44;101109.31;;;-0.47;100.00
58243;BME280;50118;53.232;8.252;2022-11-20T02:45:10;101121.63;;;-0.49;100.00
58243;BME280;50118;53.232;8.252;2022-11-20T02:47:36;101104.34;;;-0.53;100.00
58243;BME280;50118;53.232;8.252;2022-11-20T02:50:03;101107.78;;;-0.51;100.00
58243;BME280;50118;53.232;8.252;2022-11-20T02:52:28;101101.06;;;-0.58;100.00
58243;BME280;50118;53.232;8.252;2022-11-20T02:54:54;101093.88;;;-0.53;100.00
58243;BME280;50118;53.232;8.252;2022-11-20T02:57:19;101086.97;;;-0.54;100.00
58243;BME280;50118;53.232;8.252;2022-11-20T02:59:45;101086.19;;;-0.56;100.00
58243;BME280;50118;53.232;8.252;2022-11-20T03:02:10;101078.69;;;-0.45;100.00
58243;BME280;50118;53.232;8.252;2022-11-20T03:04:36;101074.66;;;-0.52;100.00
58243;BME280;50118;53.232;8.252;2022-11-20T03:07:01;101075.56;;;-0.53;100.00
58243;BME280;50118;53.232;8.252;2022-11-20T03:09:27;101071.31;;;-0.55;100.00
58243;BME280;50118;53.232;8.252;2022-11-20T03:11:52;101072.56;;;-0.44;100.00
58243;BME280;50118;53.232;8.252;2022-11-20T03:14:17;101071.19;;;-0.52;100.00
58243;BME280;50118;53.232;8.252;2022-11-20T03:16:43;101071.13;;;-0.51;100.00
58243;BME280;50118;53.232;8.252;2022-11-20T03:19:08;101067.59;;;-0.50;100.00
58243;BME280;50118;53.232;8.252;2022-11-20T03:21:34;101076.09;;;-0.45;100.00
58243;BME280;50118;53.232;8.252;2022-11-20T03:24:00;101068.44;;;-0.49;100.00
58243;BME280;50118;53.232;8.252;2022-11-20T03:26:26;101078.13;;;-0.51;100.00
58243;BME280;50118;53.232;8.252;2022-11-20T03:28:57;101064.06;;;-0.49;100.00
58243;BME280;50118;53.232;8.252;2022-11-20T03:31:41;101060.25;;;-0.42;100.00
58243;BME280;50118;53.232;8.252;2022-11-20T03:34:09;101057.56;;;-0.40;100.00
58243;BME280;50118;53.232;8.252;2022-11-20T03:36:34;101051.50;;;-0.41;100.00
58243;BME280;50118;53.232;8.252;2022-11-20T03:39:02;101046.25;;;-0.41;100.00
58243;BME280;50118;53.232;8.252;2022-11-20T03:41:30;101042.13;;;-0.46;100.00
58243;BME280;50118;53.232;8.252;2022-11-20T03:44:00;101053.47;;;-0.46;100.00
58243;BME280;50118;53.232;8.252;2022-11-20T03:46:27;101057.81;;;-0.46;100.00
58243;BME280;50118;53.232;8.252;2022-11-20T03:48:52;101064.97;;;-0.50;100.00
58243;BME280;50118;53.232;8.252;2022-11-20T03:53:45;101055.66;;;-0.36;100.00
58243;BME280;50118;53.232;8.252;2022-11-20T03:56:13;101054.59;;;-0.32;100.00
58243;BME280;50118;53.232;8.252;2022-11-20T03:58:40;101052.34;;;-0.40;100.00
58243;BME280;50118;53.232;8.252;2022-11-20T04:01:11;101053.19;;;-0.40;100.00
58243;BME280;50118;53.232;8.252;2022-11-20T04:03:38;101057.16;;;-0.31;100.00
58243;BME280;50118;53.232;8.252;2022-11-20T04:06:10;101047.09;;;-0.40;100.00
58243;BME280;50118;53.232;8.252;2022-11-20T04:08:36;101055.78;;;-0.40;100.00
58243;BME280;50118;53.232;8.252;2022-11-20T04:13:41;101044.53;;;-0.42;100.00
58243;BME280;50118;53.232;8.252;2022-11-20T04:16:08;101043.03;;;-0.27;100.00
58243;BME280;50118;53.232;8.252;2022-11-20T04:18:34;101044.22;;;-0.34;100.00
58243;BME280;50118;53.232;8.252;2022-11-20T04:21:00;101056.56;;;-0.38;100.00
58243;BME280;50118;53.232;8.252;2022-11-20T04:23:26;101051.34;;;-0.38;100.00
58243;BME280;50118;53.232;8.252;2022-11-20T04:25:52;101049.66;;;-0.39;100.00
58243;BME280;50118;53.232;8.252;2022-11-20T04:28:18;101037.34;;;-0.36;100.00
58243;BME280;50118;53.232;8.252;2022-11-20T04:30:43;101041.75;;;-0.37;100.00
58243;BME280;50118;53.232;8.252;2022-11-20T04:33:08;101037.22;;;-0.33;100.00
58243;BME280;50118;53.232;8.252;2022-11-20T04:35:35;101044.13;;;-0.32;100.00
58243;BME280;50118;53.232;8.252;2022-11-20T04:38:00;101044.00;;;-0.29;100.00
58243;BME280;50118;53.232;8.252;2022-11-20T04:40:27;101033.25;;;-0.23;100.00
58243;BME280;50118;53.232;8.252;2022-11-20T04:42:52;101033.91;;;-0.18;100.00
58243;BME280;50118;53.232;8.252;2022-11-20T04:45:18;101032.50;;;-0.25;100.00
58243;BME280;50118;53.232;8.252;2022-11-20T04:47:44;101035.19;;;-0.27;100.00
58243;BME280;50118;53.232;8.252;2022-11-20T04:50:09;101031.97;;;-0.33;100.00
58243;BME280;50118;53.232;8.252;2022-11-20T04:52:35;101019.94;;;-0.38;100.00
58243;BME280;50118;53.232;8.252;2022-11-20T04:55:00;101026.88;;;-0.36;100.00
58243;BME280;50118;53.232;8.252;2022-11-20T04:57:26;101016.06;;;-0.29;100.00
58243;BME280;50118;53.232;8.252;2022-11-20T04:59:51;101026.75;;;-0.33;100.00
58243;BME280;50118;53.232;8.252;2022-11-20T05:02:17;101014.28;;;-0.28;100.00
58243;BME280;50118;53.232;8.252;2022-11-20T05:04:42;101028.59;;;-0.35;100.00
58243;BME280;50118;53.232;8.252;2022-11-20T05:07:08;101025.31;;;-0.41;100.00
58243;BME280;50118;53.232;8.252;2022-11-20T05:09:33;101025.81;;;-0.32;100.00
58243;BME280;50118;53.232;8.252;2022-11-20T05:11:59;101028.59;;;-0.35;100.00
58243;BME280;50118;53.232;8.252;2022-11-20T05:14:24;101035.63;;;-0.38;100.00
58243;BME280;50118;53.232;8.252;2022-11-20T05:16:49;101023.34;;;-0.35;100.00
58243;BME280;50118;53.232;8.252;2022-11-20T05:19:15;101017.41;;;-0.39;100.00
58243;BME280;50118;53.232;8.252;2022-11-20T05:21:40;101018.94;;;-0.35;100.00
58243;BME280;50118;53.232;8.252;2022-11-20T05:24:06;101009.31;;;-0.34;100.00
58243;BME280;50118;53.232;8.252;2022-11-20T05:26:32;101007.63;;;-0.35;100.00
58243;BME280;50118;53.232;8.252;2022-11-20T05:28:58;100997.94;;;-0.33;100.00
58243;BME280;50118;53.232;8.252;2022-11-20T05:31:24;101001.47;;;-0.34;100.00
58243;BME280;50118;53.232;8.252;2022-11-20T05:33:50;101005.88;;;-0.35;100.00
58243;BME280;50118;53.232;8.252;2022-11-20T05:36:16;100997.44;;;-0.42;100.00
58243;BME280;50118;53.232;8.252;2022-11-20T05:38:43;100992.25;;;-0.43;100.00
58243;BME280;50118;53.232;8.252;2022-11-20T05:41:10;100984.16;;;-0.37;100.00
58243;BME280;50118;53.232;8.252;2022-11-20T05:43:37;100983.28;;;-0.38;100.00
58243;BME280;50118;53.232;8.252;2022-11-20T05:46:04;100980.66;;;-0.38;100.00
58243;BME280;50118;53.232;8.252;2022-11-20T05:48:30;100974.53;;;-0.36;100.00
58243;BME280;50118;53.232;8.252;2022-11-20T05:50:59;100966.66;;;-0.36;100.00
58243;BME280;50118;53.232;8.252;2022-11-20T05:53:25;100974.00;;;-0.45;100.00
58243;BME280;50118;53.232;8.252;2022-11-20T05:56:01;100983.63;;;-0.45;100.00
58243;BME280;50118;53.232;8.252;2022-11-20T05:58:28;100977.06;;;-0.54;100.00
58243;BME280;50118;53.232;8.252;2022-11-20T06:00:54;100977.56;;;-0.46;100.00
58243;BME280;50118;53.232;8.252;2022-11-20T06:03:20;100977.56;;;-0.46;100.00
58243;BME280;50118;53.232;8.252;2022-11-20T06:05:46;100983.84;;;-0.50;100.00
58243;BME280;50118;53.232;8.252;2022-11-20T06:08:11;100986.59;;;-0.53;100.00
58243;BME280;50118;53.232;8.252;2022-11-20T06:10:37;100987.53;;;-0.54;100.00
58243;BME280;50118;53.232;8.252;2022-11-20T06:13:02;100991.16;;;-0.58;100.00
58243;BME280;50118;53.232;8.252;2022-11-20T06:15:27;100985.16;;;-0.60;100.00
58243;BME280;50118;53.232;8.252;2022-11-20T06:17:54;100990.25;;;-0.57;100.00
58243;BME280;50118;53.232;8.252;2022-11-20T06:20:20;100971.94;;;-0.57;100.00
58243;BME280;50118;53.232;8.252;2022-11-20T06:22:46;100977.81;;;-0.52;100.00
58243;BME280;50118;53.232;8.252;2022-11-20T06:25:11;100977.88;;;-0.53;100.00
58243;BME280;50118;53.232;8.252;2022-11-20T06:27:37;100972.91;;;-0.60;100.00
58243;BME280;50118;53.232;8.252;2022-11-20T06:30:03;100982.69;;;-0.63;100.00
58243;BME280;50118;53.232;8.252;2022-11-20T06:32:29;100978.44;;;-0.66;100.00
58243;BME280;50118;53.232;8.252;2022-11-20T06:34:54;100974.34;;;-0.71;100.00
58243;BME280;50118;53.232;8.252;2022-11-20T06:37:19;100976.03;;;-0.70;100.00
58243;BME280;50118;53.232;8.252;2022-11-20T06:39:45;100973.69;;;-0.77;100.00
58243;BME280;50118;53.232;8.252;2022-11-20T06:42:10;100974.59;;;-0.78;100.00
58243;BME280;50118;53.232;8.252;2022-11-20T06:44:36;100970.25;;;-0.79;100.00
58243;BME280;50118;53.232;8.252;2022-11-20T06:47:01;100976.38;;;-0.78;100.00
58243;BME280;50118;53.232;8.252;2022-11-20T06:49:26;100975.66;;;-0.82;100.00
58243;BME280;50118;53.232;8.252;2022-11-20T06:51:52;100981.78;;;-0.83;100.00
58243;BME280;50118;53.232;8.252;2022-11-20T06:54:17;100973.94;;;-0.83;100.00
58243;BME280;50118;53.232;8.252;2022-11-20T06:56:46;100972.28;;;-0.85;100.00
58243;BME280;50118;53.232;8.252;2022-11-20T06:59:13;100975.06;;;-0.88;100.00
58243;BME280;50118;53.232;8.252;2022-11-20T07:01:38;100977.88;;;-0.93;100.00
58243;BME280;50118;53.232;8.252;2022-11-20T07:04:03;100985.84;;;-0.96;100.00
58243;BME280;50118;53.232;8.252;2022-11-20T07:06:29;100980.59;;;-0.96;100.00
58243;BME280;50118;53.232;8.252;2022-11-20T07:08:54;100976.56;;;-1.03;100.00
58243;BME280;50118;53.232;8.252;2022-11-20T07:11:20;100981.91;;;-1.06;100.00
58243;BME280;50118;53.232;8.252;2022-11-20T07:13:45;100977.59;;;-1.07;100.00
58243;BME280;50118;53.232;8.252;2022-11-20T07:16:10;100980.94;;;-1.04;100.00
58243;BME280;50118;53.232;8.252;2022-11-20T07:18:36;100995.00;;;-1.06;100.00
58243;BME280;50118;53.232;8.252;2022-11-20T07:21:07;100987.91;;;-1.04;100.00
58243;BME280;50118;53.232;8.252;2022-11-20T07:23:33;100991.53;;;-1.07;100.00
58243;BME280;50118;53.232;8.252;2022-11-20T07:26:03;100983.56;;;-1.04;100.00
58243;BME280;50118;53.232;8.252;2022-11-20T07:28:28;100987.81;;;-1.01;100.00
58243;BME280;50118;53.232;8.252;2022-11-20T07:30:53;100990.16;;;-0.95;100.00
58243;BME280;50118;53.232;8.252;2022-11-20T07:33:19;100991.66;;;-0.89;100.00
58243;BME280;50118;53.232;8.252;2022-11-20T07:35:45;100990.53;;;-0.84;100.00
58243;BME280;50118;53.232;8.252;2022-11-20T07:38:10;100987.84;;;-0.82;100.00
58243;BME280;50118;53.232;8.252;2022-11-20T07:40:36;100986.03;;;-0.80;100.00
58243;BME280;50118;53.232;8.252;2022-11-20T07:43:01;100988.44;;;-0.76;100.00
58243;BME280;50118;53.232;8.252;2022-11-20T07:45:26;100989.09;;;-0.70;100.00
58243;BME280;50118;53.232;8.252;2022-11-20T07:47:52;100986.59;;;-0.73;100.00
58243;BME280;50118;53.232;8.252;2022-11-20T07:50:18;100984.81;;;-0.71;100.00
58243;BME280;50118;53.232;8.252;2022-11-20T07:52:44;100986.47;;;-0.70;100.00
58243;BME280;50118;53.232;8.252;2022-11-20T07:55:10;100988.72;;;-0.61;100.00
58243;BME280;50118;53.232;8.252;2022-11-20T07:57:36;100993.94;;;-0.61;100.00
58243;BME280;50118;53.232;8.252;2022-11-20T08:00:06;100978.09;;;-0.58;100.00
58243;BME280;50118;53.232;8.252;2022-11-20T08:02:34;100974.38;;;-0.52;100.00
58243;BME280;50118;53.232;8.252;2022-11-20T08:04:59;100969.06;;;-0.51;100.00
58243;BME280;50118;53.232;8.252;2022-11-20T08:07:24;100976.75;;;-0.48;100.00
58243;BME280;50118;53.232;8.252;2022-11-20T08:09:50;100977.56;;;-0.46;100.00
58243;BME280;50118;53.232;8.252;2022-11-20T08:12:18;100978.03;;;-0.38;100.00
58243;BME280;50118;53.232;8.252;2022-11-20T08:15:03;100978.03;;;-0.38;100.00
58243;BME280;50118;53.232;8.252;2022-11-20T08:17:29;100982.38;;;-0.36;100.00
58243;BME280;50118;53.232;8.252;2022-11-20T08:19:54;100985.50;;;-0.28;100.00
58243;BME280;50118;53.232;8.252;2022-11-20T08:22:19;100993.78;;;-0.18;100.00
58243;BME280;50118;53.232;8.252;2022-11-20T08:24:46;100986.50;;;-0.12;100.00
58243;BME280;50118;53.232;8.252;2022-11-20T08:27:11;100988.06;;;-0.08;100.00
58243;BME280;50118;53.232;8.252;2022-11-20T08:29:37;100980.19;;;-0.08;100.00
58243;BME280;50118;53.232;8.252;2022-11-20T08:32:02;100977.50;;;-0.06;100.00
58243;BME280;50118;53.232;8.252;2022-11-20T08:34:28;100976.81;;;-0.10;100.00
58243;BME280;50118;53.232;8.252;2022-11-20T08:36:53;100982.88;;;-0.09;100.00
58243;BME280;50118;53.232;8.252;2022-11-20T08:39:18;100984.72;;;-0.11;100.00
58243;BME280;50118;53.232;8.252;2022-11-20T08:41:44;100978.34;;;-0.06;100.00
58243;BME280;50118;53.232;8.252;2022-11-20T08:44:09;100990.81;;;-0.11;100.00
58243;BME280;50118;53.232;8.252;2022-11-20T08:46:41;100987.69;;;-0.19;100.00
58243;BME280;50118;53.232;8.252;2022-11-20T08:49:10;100990.47;;;-0.22;100.00
58243;BME280;50118;53.232;8.252;2022-11-20T08:51:37;100987.41;;;-0.13;100.00
58243;BME280;50118;53.232;8.252;2022-11-20T08:54:03;100990.03;;;-0.13;100.00
58243;BME280;50118;53.232;8.252;2022-11-20T08:56:29;100991.59;;;-0.09;100.00
58243;BME280;50118;53.232;8.252;2022-11-20T08:58:54;100987.28;;;-0.10;100.00
58243;BME280;50118;53.232;8.252;2022-11-20T09:01:21;100988.13;;;-0.09;100.00
58243;BME280;50118;53.232;8.252;2022-11-20T09:03:48;100994.00;;;-0.04;100.00
58243;BME280;50118;53.232;8.252;2022-11-20T09:06:15;100992.78;;;0.03;100.00
58243;BME280;50118;53.232;8.252;2022-11-20T09:08:40;100995.19;;;0.08;100.00
58243;BME280;50118;53.232;8.252;2022-11-20T09:11:06;100993.91;;;0.16;100.00
58243;BME280;50118;53.232;8.252;2022-11-20T09:13:33;100985.06;;;0.19;100.00
58243;BME280;50118;53.232;8.252;2022-11-20T09:16:07;100990.06;;;0.24;100.00
58243;BME280;50118;53.232;8.252;2022-11-20T09:18:34;100993.25;;;0.30;100.00
58243;BME280;50118;53.232;8.252;2022-11-20T09:21:03;100983.25;;;0.39;100.00
58243;BME280;50118;53.232;8.252;2022-11-20T09:23:34;100986.66;;;0.41;100.00
58243;BME280;50118;53.232;8.252;2022-11-20T09:26:13;100994.06;;;0.32;100.00
58243;BME280;50118;53.232;8.252;2022-11-20T09:28:41;100988.81;;;0.32;100.00
58243;BME280;50118;53.232;8.252;2022-11-20T09:31:09;100986.38;;;0.47;100.00
58243;BME280;50118;53.232;8.252;2022-11-20T09:33:35;100981.88;;;0.49;100.00
58243;BME280;50118;53.232;8.252;2022-11-20T09:36:01;100990.63;;;0.30;100.00
58243;BME280;50118;53.232;8.252;2022-11-20T09:38:26;100987.53;;;0.41;100.00
58243;BME280;50118;53.232;8.252;2022-11-20T09:41:03;100987.22;;;0.47;100.00
58243;BME280;50118;53.232;8.252;2022-11-20T09:43:46;100993.53;;;0.43;100.00
58243;BME280;50118;53.232;8.252;2022-11-20T09:46:49;100991.06;;;0.40;100.00
58243;BME280;50118;53.232;8.252;2022-11-20T09:54:42;100975.59;;;0.53;100.00
58243;BME280;50118;53.232;8.252;2022-11-20T09:57:15;100976.28;;;0.57;100.00
58243;BME280;50118;53.232;8.252;2022-11-20T09:59:51;100976.34;;;0.55;100.00
58243;BME280;50118;53.232;8.252;2022-11-20T10:02:42;100970.09;;;0.58;100.00
58243;BME280;50118;53.232;8.252;2022-11-20T10:05:21;100971.13;;;0.72;100.00
58243;BME280;50118;53.232;8.252;2022-11-20T10:10:34;100975.91;;;0.82;100.00
58243;BME280;50118;53.232;8.252;2022-11-20T10:24:36;100957.88;;;0.76;100.00
58243;BME280;50118;53.232;8.252;2022-11-20T10:28:09;100967.88;;;0.67;100.00
58243;BME280;50118;53.232;8.252;2022-11-20T10:30:14;100955.53;;;0.69;100.00
58243;BME280;50118;53.232;8.252;2022-11-20T10:32:43;100958.94;;;0.71;100.00
58243;BME280;50118;53.232;8.252;2022-11-20T10:35:34;100946.28;;;0.80;100.00
58243;BME280;50118;53.232;8.252;2022-11-20T10:38:21;100940.19;;;0.97;100.00
58243;BME280;50118;53.232;8.252;2022-11-20T10:40:52;100940.81;;;1.02;100.00
58243;BME280;50118;53.232;8.252;2022-11-20T10:43:28;100947.25;;;1.12;100.00
58243;BME280;50118;53.232;8.252;2022-11-20T10:46:01;100947.34;;;1.10;100.00
58243;BME280;50118;53.232;8.252;2022-11-20T10:48:31;100944.72;;;1.10;100.00
58243;BME280;50118;53.232;8.252;2022-11-20T10:51:12;100947.03;;;1.17;100.00
58243;BME280;50118;53.232;8.252;2022-11-20T10:56:34;100938.19;;;1.35;100.00
58243;BME280;50118;53.232;8.252;2022-11-20T11:01:47;100946.91;;;1.02;100.00
58243;BME280;50118;53.232;8.252;2022-11-20T11:04:37;100953.44;;;0.93;100.00
58243;BME280;50118;53.232;8.252;2022-11-20T11:07:15;100943.97;;;0.91;100.00
58243;BME280;50118;53.232;8.252;2022-11-20T11:09:53;100946.13;;;0.83;100.00
58243;BME280;50118;53.232;8.252;2022-11-20T11:12:21;100944.44;;;0.82;100.00
58243;BME280;50118;53.232;8.252;2022-11-20T11:14:50;100938.81;;;0.89;100.00
58243;BME280;50118;53.232;8.252;2022-11-20T11:17:23;100929.69;;;0.97;100.00
58243;BME280;50118;53.232;8.252;2022-11-20T11:20:05;100930.47;;;0.99;100.00
58243;BME280;50118;53.232;8.252;2022-11-20T11:22:34;100930.06;;;1.06;100.00
58243;BME280;50118;53.232;8.252;2022-11-20T11:24:59;100927.91;;;1.15;100.00
58243;BME280;50118;53.232;8.252;2022-11-20T11:27:25;100926.00;;;1.34;100.00
58243;BME280;50118;53.232;8.252;2022-11-20T11:30:02;100922.75;;;1.46;100.00
58243;BME280;50118;53.232;8.252;2022-11-20T11:32:28;100919.19;;;1.63;100.00
58243;BME280;50118;53.232;8.252;2022-11-20T11:35:01;100920.72;;;1.52;98.11
58243;BME280;50118;53.232;8.252;2022-11-20T11:37:33;100919.28;;;1.78;96.80
58243;BME280;50118;53.232;8.252;2022-11-20T11:40:00;100921.47;;;1.85;96.20
58243;BME280;50118;53.232;8.252;2022-11-20T11:42:27;100917.66;;;1.59;95.38
58243;BME280;50118;53.232;8.252;2022-11-20T11:44:57;100910.03;;;1.55;96.32
58243;BME280;50118;53.232;8.252;2022-11-20T11:47:37;100919.28;;;1.62;96.86
58243;BME280;50118;53.232;8.252;2022-11-20T11:52:41;100908.56;;;1.33;97.54
58243;BME280;50118;53.232;8.252;2022-11-20T11:55:09;100904.47;;;1.27;97.18
58243;BME280;50118;53.232;8.252;2022-11-20T12:00:17;100894.03;;;1.43;97.87
58243;BME280;50118;53.232;8.252;2022-11-20T12:07:46;100893.50;;;1.37;96.06
58243;BME280;50118;53.232;8.252;2022-11-20T12:10:23;100890.53;;;1.43;96.98
58243;BME280;50118;53.232;8.252;2022-11-20T12:13:26;100885.19;;;1.44;95.83
58243;BME280;50118;53.232;8.252;2022-11-20T12:15:56;100874.53;;;1.47;96.14
58243;BME280;50118;53.232;8.252;2022-11-20T12:18:22;100869.44;;;1.28;96.18
58243;BME280;50118;53.232;8.252;2022-11-20T12:35:13;100861.94;;;1.38;97.83
58243;BME280;50118;53.232;8.252;2022-11-20T12:42:59;100851.22;;;1.25;96.69
58243;BME280;50118;53.232;8.252;2022-11-20T12:46:27;100845.22;;;1.07;98.55
58243;BME280;50118;53.232;8.252;2022-11-20T12:48:58;100840.78;;;1.08;99.09
58243;BME280;50118;53.232;8.252;2022-11-20T12:52:02;100839.44;;;1.17;98.41
58243;BME280;50118;53.232;8.252;2022-11-20T13:08:37;100846.47;;;1.96;96.22
58243;BME280;50118;53.232;8.252;2022-11-20T13:16:33;100845.66;;;2.26;93.84
58243;BME280;50118;53.232;8.252;2022-11-20T13:19:03;100835.81;;;2.29;93.43
58243;BME280;50118;53.232;8.252;2022-11-20T13:24:27;100844.31;;;2.18;94.16
58243;BME280;50118;53.232;8.252;2022-11-20T13:27:17;100838.06;;;2.05;94.01
58243;BME280;50118;53.232;8.252;2022-11-20T13:29:45;100844.53;;;1.99;94.49
58243;BME280;50118;53.232;8.252;2022-11-20T13:32:20;100836.53;;;2.17;93.09
58243;BME280;50118;53.232;8.252;2022-11-20T13:34:57;100830.94;;;2.07;92.75
58243;BME280;50118;53.232;8.252;2022-11-20T13:37:32;100840.38;;;2.11;91.80
58243;BME280;50118;53.232;8.252;2022-11-20T13:42:45;100833.88;;;1.86;92.11
58243;BME280;50118;53.232;8.252;2022-11-20T13:45:28;100828.28;;;1.77;93.16
58243;BME280;50118;53.232;8.252;2022-11-20T13:47:55;100827.59;;;1.73;94.56
58243;BME280;50118;53.232;8.252;2022-11-20T13:50:38;100819.56;;;1.76;95.27
58243;BME280;50118;53.232;8.252;2022-11-20T14:01:24;100804.38;;;1.81;95.08
58243;BME280;50118;53.232;8.252;2022-11-20T14:03:52;100801.00;;;1.79;95.87
58243;BME280;50118;53.232;8.252;2022-11-20T14:06:29;100796.75;;;1.77;96.61
58243;BME280;50118;53.232;8.252;2022-11-20T14:08:56;100785.25;;;1.79;95.70
58243;BME280;50118;53.232;8.252;2022-11-20T14:11:27;100785.84;;;1.68;95.42
58243;BME280;50118;53.232;8.252;2022-11-20T14:14:00;100793.84;;;1.67;96.88
58243;BME280;50118;53.232;8.252;2022-11-20T14:16:31;100794.59;;;1.69;96.58
58243;BME280;50118;53.232;8.252;2022-11-20T14:19:00;100797.91;;;1.57;95.66
58243;BME280;50118;53.232;8.252;2022-11-20T14:21:42;100793.16;;;1.47;96.57
58243;BME280;50118;53.232;8.252;2022-11-20T14:24:11;100784.84;;;1.39;96.46
58243;BME280;50118;53.232;8.252;2022-11-20T14:26:46;100783.94;;;1.40;96.87
58243;BME280;50118;53.232;8.252;2022-11-20T14:29:17;100783.50;;;1.16;96.75
58243;BME280;50118;53.232;8.252;2022-11-20T14:31:45;100778.81;;;1.05;97.98
58243;BME280;50118;53.232;8.252;2022-11-20T14:34:22;100776.13;;;0.91;98.57